Time;durP1;ratioP1;P1;durP2;ratioP2;P2;SDS_P1;SDS_P2;PMS_P1;PMS_P2;Temp;Humidity;BMP_temperature;BMP_pressure;BME280_temperature;BME280_humidity;BME280_pressure;Samples;Min_cycle;Max_cycle;Signal;HPM_P1;HPM_P2
2023/03/08 00:00:01;;;;;;;17.27;10.35;;;3.00;99.90;;;;;;5033715;28;20352;-52
2023/03/08 00:02:26;;;;;;;16.60;10.18;;;2.90;99.90;;;;;;5049194;28;20421;-51
2023/03/08 00:04:55;;;;;;;16.60;10.50;;;2.90;99.90;;;;;;5046958;28;20124;-52
2023/03/08 00:07:21;;;;;;;17.08;11.00;;;2.90;99.90;;;;;;5044021;28;20048;-50
2023/03/08 00:09:47;;;;;;;18.63;10.65;;;3.10;99.90;;;;;;5026425;28;20037;-52
2023/03/08 00:12:13;;;;;;;15.18;10.32;;;3.10;99.90;;;;;;5044189;28;20060;-52
2023/03/08 00:14:39;;;;;;;17.77;10.32;;;3.00;99.90;;;;;;5043834;28;20040;-53
2023/03/08 00:17:05;;;;;;;17.70;10.48;;;3.00;99.90;;;;;;5047479;28;20472;-53
2023/03/08 00:19:30;;;;;;;19.25;10.52;;;3.00;99.90;;;;;;5044323;28;20495;-51
2023/03/08 00:21:57;;;;;;;15.90;10.45;;;3.20;99.90;;;;;;5046200;28;20120;-49
2023/03/08 00:24:22;;;;;;;17.40;11.00;;;3.20;99.90;;;;;;5044800;28;20065;-51
2023/03/08 00:26:48;;;;;;;15.98;10.45;;;3.10;99.90;;;;;;5044910;28;20048;-52
2023/03/08 00:29:13;;;;;;;20.20;11.43;;;3.10;99.90;;;;;;5040140;28;20497;-52
2023/03/08 00:31:39;;;;;;;17.25;10.63;;;2.80;99.90;;;;;;5045930;28;20037;-51
2023/03/08 00:34:05;;;;;;;19.13;10.55;;;2.80;99.90;;;;;;5037468;28;20037;-52
2023/03/08 00:36:30;;;;;;;16.08;10.65;;;2.80;99.90;;;;;;5042831;28;20037;-51
2023/03/08 00:38:56;;;;;;;17.83;10.73;;;2.80;99.90;;;;;;5040669;28;20033;-52
2023/03/08 00:41:22;;;;;;;16.50;10.35;;;2.70;99.90;;;;;;5044023;28;20049;-50
2023/03/08 00:43:48;;;;;;;16.80;10.40;;;2.70;99.90;;;;;;5044519;28;20033;-51
2023/03/08 00:46:13;;;;;;;18.88;10.90;;;2.70;99.90;;;;;;5040754;28;20484;-50
2023/03/08 00:48:40;;;;;;;16.48;10.23;;;2.70;99.90;;;;;;5026111;28;20124;-52
2023/03/08 00:51:05;;;;;;;17.00;10.93;;;2.70;99.90;;;;;;5042661;28;20029;-52
2023/03/08 00:53:31;;;;;;;19.55;10.82;;;2.80;99.90;;;;;;5045797;28;20052;-52
2023/03/08 00:55:59;;;;;;;19.17;10.73;;;2.70;99.90;;;;;;5044911;28;20039;-53
2023/03/08 00:58:26;;;;;;;17.45;10.65;;;2.70;99.90;;;;;;5049104;28;20041;-54
2023/03/08 01:00:52;;;;;;;17.90;11.05;;;2.60;99.90;;;;;;5043407;28;20424;-54
2023/03/08 01:03:20;;;;;;;18.15;10.80;;;2.50;99.90;;;;;;5042424;28;20082;-53
2023/03/08 01:05:48;;;;;;;18.70;10.82;;;2.60;99.90;;;;;;5048587;28;20495;-52
2023/03/08 01:08:16;;;;;;;17.90;10.93;;;2.60;99.90;;;;;;5039246;28;20128;-53
2023/03/08 01:10:53;;;;;;;16.10;10.68;;;2.50;99.90;;;;;;5048641;28;20672;-52
2023/03/08 01:13:19;;;;;;;19.23;11.10;;;2.40;99.90;;;;;;5040063;28;20029;-50
2023/03/08 01:15:46;;;;;;;19.23;11.15;;;2.40;99.90;;;;;;5044397;28;20045;-55
2023/03/08 01:18:11;;;;;;;18.90;11.60;;;2.40;99.90;;;;;;5041933;28;20030;-52
2023/03/08 01:20:37;;;;;;;19.58;11.55;;;2.60;99.90;;;;;;5042620;28;20049;-53
2023/03/08 01:23:03;;;;;;;19.25;10.55;;;2.50;99.90;;;;;;5046792;28;20033;-52
2023/03/08 01:25:28;;;;;;;20.80;10.52;;;2.40;99.90;;;;;;5038927;28;20424;-53
2023/03/08 01:27:54;;;;;;;17.35;11.43;;;2.50;99.90;;;;;;5043979;28;20047;-52
2023/03/08 01:30:20;;;;;;;15.48;10.43;;;2.40;99.90;;;;;;5041650;28;20374;-52
2023/03/08 01:32:46;;;;;;;20.27;11.10;;;2.50;99.90;;;;;;5044171;28;20037;-54
2023/03/08 01:35:11;;;;;;;16.38;11.63;;;2.70;99.90;;;;;;5038080;28;20040;-51
2023/03/08 01:37:37;;;;;;;17.42;11.32;;;2.70;99.90;;;;;;5043720;28;20136;-54
2023/03/08 01:40:04;;;;;;;18.83;11.88;;;2.80;99.90;;;;;;5044226;28;20043;-52
2023/03/08 01:42:30;;;;;;;20.08;11.82;;;2.60;99.90;;;;;;5043420;28;20033;-53
2023/03/08 01:45:00;;;;;;;19.08;12.43;;;2.60;99.90;;;;;;5044448;28;20044;-54
2023/03/08 01:47:28;;;;;;;18.38;12.05;;;2.60;99.90;;;;;;5043714;28;20504;-53
2023/03/08 01:49:58;;;;;;;17.33;11.63;;;2.60;99.90;;;;;;5043559;28;20056;-53
2023/03/08 01:52:42;;;;;;;18.85;12.35;;;2.50;99.90;;;;;;5043713;28;20075;-53
2023/03/08 01:55:11;;;;;;;17.48;12.02;;;2.60;99.90;;;;;;5039818;28;20115;-53
2023/03/08 01:57:40;;;;;;;18.77;11.18;;;2.50;99.90;;;;;;5042997;28;20098;-53
2023/03/08 02:00:13;;;;;;;18.67;12.60;;;2.40;99.90;;;;;;5041119;28;20099;-53
2023/03/08 02:02:48;;;;;;;16.50;11.27;;;2.40;99.90;;;;;;5040583;28;20052;-54
2023/03/08 02:05:16;;;;;;;16.45;11.10;;;2.40;99.90;;;;;;5043637;28;20037;-54
2023/03/08 02:07:41;;;;;;;17.70;10.90;;;2.50;99.90;;;;;;5041253;28;20052;-52
2023/03/08 02:10:08;;;;;;;17.25;11.50;;;2.60;99.90;;;;;;5052903;28;20056;-51
2023/03/08 02:12:35;;;;;;;16.52;11.50;;;2.60;99.90;;;;;;5053553;28;20142;-53
2023/03/08 02:15:03;;;;;;;16.85;11.00;;;2.60;99.90;;;;;;5052880;28;20044;-50
2023/03/08 02:17:29;;;;;;;17.35;11.43;;;2.50;99.90;;;;;;5059839;28;20574;-54
2023/03/08 02:20:05;;;;;;;20.10;11.52;;;2.50;99.90;;;;;;5045226;28;20127;-53
2023/03/08 02:22:31;;;;;;;16.23;10.73;;;2.50;99.90;;;;;;5057256;28;20033;-55
2023/03/08 02:24:57;;;;;;;16.75;10.75;;;2.40;99.90;;;;;;5056143;28;20083;-54
2023/03/08 02:27:27;;;;;;;16.10;10.70;;;2.40;99.90;;;;;;5046329;28;20049;-52
2023/03/08 02:29:53;;;;;;;17.85;11.05;;;2.50;99.90;;;;;;5047284;28;20041;-51
2023/03/08 02:32:18;;;;;;;15.70;10.32;;;2.40;99.90;;;;;;5043961;28;20033;-54
2023/03/08 02:34:44;;;;;;;16.38;9.70;;;2.40;99.90;;;;;;5044287;28;20057;-53
2023/03/08 02:37:10;;;;;;;16.83;11.20;;;2.40;99.90;;;;;;5047171;28;20035;-51
2023/03/08 02:39:35;;;;;;;17.38;10.77;;;2.40;99.90;;;;;;5040192;28;20120;-52
2023/03/08 02:42:01;;;;;;;14.57;10.43;;;2.50;99.90;;;;;;5051373;28;20025;-53
2023/03/08 02:44:26;;;;;;;14.82;10.65;;;2.50;99.90;;;;;;5046672;28;20033;-53
2023/03/08 02:46:52;;;;;;;19.00;11.68;;;2.60;99.90;;;;;;5046741;28;20064;-53
2023/03/08 02:49:18;;;;;;;16.17;10.93;;;2.70;99.90;;;;;;5042144;28;20068;-54
2023/03/08 02:51:43;;;;;;;17.63;10.88;;;2.70;99.90;;;;;;5046775;28;20040;-53
2023/03/08 02:54:09;;;;;;;17.85;11.60;;;2.80;99.90;;;;;;5043138;28;20082;-52
2023/03/08 02:56:36;;;;;;;18.05;12.10;;;2.80;99.90;;;;;;5051296;28;20036;-53
2023/03/08 02:59:02;;;;;;;18.98;12.57;;;2.80;99.90;;;;;;5041058;28;20037;-50
2023/03/08 03:01:27;;;;;;;18.85;12.07;;;2.90;99.90;;;;;;5043445;28;21678;-52
2023/03/08 03:03:54;;;;;;;19.30;11.63;;;2.80;99.90;;;;;;5036853;28;20044;-52
2023/03/08 03:06:20;;;;;;;16.70;11.60;;;2.70;99.90;;;;;;5044213;28;20033;-53
2023/03/08 03:08:46;;;;;;;14.85;10.35;;;2.70;99.90;;;;;;5040872;28;20493;-54
2023/03/08 03:11:18;;;;;;;17.52;10.93;;;2.90;99.90;;;;;;5045595;28;20504;-53
2023/03/08 03:13:44;;;;;;;19.70;11.63;;;2.90;99.90;;;;;;5048886;28;20068;-54
2023/03/08 03:16:12;;;;;;;21.42;11.48;;;2.90;99.90;;;;;;5045560;28;20064;-53
2023/03/08 03:18:37;;;;;;;16.33;10.65;;;2.90;99.90;;;;;;5043049;28;20048;-54
2023/03/08 03:21:05;;;;;;;13.38;10.13;;;2.90;99.90;;;;;;5041991;28;20600;-54
2023/03/08 03:23:31;;;;;;;16.52;9.93;;;2.90;99.90;;;;;;5046084;28;20527;-54
2023/03/08 03:26:03;;;;;;;14.50;9.40;;;2.70;99.90;;;;;;5046663;28;20053;-54
2023/03/08 03:28:29;;;;;;;14.13;9.32;;;2.60;99.90;;;;;;5035633;28;20040;-52
2023/03/08 03:30:54;;;;;;;13.82;9.30;;;2.60;99.90;;;;;;5027716;28;20153;-54
2023/03/08 03:33:20;;;;;;;12.73;8.63;;;2.60;99.90;;;;;;5026541;28;20065;-54
2023/03/08 03:35:45;;;;;;;15.20;9.35;;;2.80;99.90;;;;;;5029165;28;20040;-53
2023/03/08 03:38:11;;;;;;;17.20;8.95;;;2.80;99.90;;;;;;5033133;28;20021;-52
2023/03/08 03:40:36;;;;;;;17.23;9.43;;;2.80;99.90;;;;;;5032588;28;20635;-54
2023/03/08 03:43:02;;;;;;;14.40;9.45;;;2.80;99.90;;;;;;5030538;28;20037;-54
2023/03/08 03:45:28;;;;;;;13.32;9.27;;;2.90;99.90;;;;;;5030816;28;20037;-54
2023/03/08 03:47:53;;;;;;;13.63;8.93;;;2.90;99.90;;;;;;5036716;28;20345;-54
2023/03/08 03:50:19;;;;;;;16.70;10.13;;;2.70;99.90;;;;;;5026158;28;20029;-54
2023/03/08 03:52:44;;;;;;;14.27;9.05;;;2.80;99.90;;;;;;5029357;28;20044;-53
2023/03/08 03:55:10;;;;;;;14.75;9.27;;;2.80;99.90;;;;;;5031633;28;20032;-53
2023/03/08 03:57:35;;;;;;;15.50;9.98;;;2.80;99.90;;;;;;5026512;28;20084;-54
2023/03/08 04:00:03;;;;;;;16.02;8.60;;;2.90;99.90;;;;;;5033675;28;20400;-54
2023/03/08 04:02:29;;;;;;;16.58;9.95;;;2.90;99.90;;;;;;5046545;28;20117;-51
2023/03/08 04:04:54;;;;;;;15.95;9.10;;;2.90;99.90;;;;;;5058962;28;20037;-53
2023/03/08 04:07:20;;;;;;;20.33;9.60;;;2.90;99.90;;;;;;5040315;28;20074;-53
2023/03/08 04:09:46;;;;;;;16.58;8.95;;;2.80;99.90;;;;;;5046574;28;20033;-52
2023/03/08 04:12:12;;;;;;;17.70;10.23;;;2.80;99.90;;;;;;5047210;28;20032;-53
2023/03/08 04:14:39;;;;;;;15.43;9.98;;;2.90;99.90;;;;;;5044884;28;20037;-53
2023/03/08 04:17:05;;;;;;;16.35;9.70;;;2.80;99.90;;;;;;5045223;28;20037;-53
2023/03/08 04:19:30;;;;;;;16.00;10.20;;;2.70;99.90;;;;;;5042598;28;20033;-54
2023/03/08 04:21:56;;;;;;;17.65;10.10;;;2.80;99.90;;;;;;5051137;28;20507;-53
2023/03/08 04:24:21;;;;;;;18.75;11.20;;;2.80;99.90;;;;;;5044208;28;20049;-52
2023/03/08 04:26:47;;;;;;;18.88;11.60;;;2.80;99.90;;;;;;5046015;28;20116;-54
2023/03/08 04:29:13;;;;;;;19.63;12.10;;;2.70;99.90;;;;;;5046462;28;20071;-53
2023/03/08 04:31:38;;;;;;;19.90;11.07;;;2.60;99.90;;;;;;5045373;28;20059;-52
2023/03/08 04:34:04;;;;;;;18.65;10.60;;;2.70;99.90;;;;;;5046573;28;20032;-51
2023/03/08 04:36:30;;;;;;;17.70;11.13;;;2.60;99.90;;;;;;5046723;28;20396;-53
2023/03/08 04:38:56;;;;;;;19.40;10.98;;;2.60;99.90;;;;;;5053568;28;20083;-52
2023/03/08 04:41:21;;;;;;;19.98;11.70;;;2.70;99.90;;;;;;5042313;28;20502;-53
2023/03/08 04:43:50;;;;;;;19.63;12.18;;;2.70;99.90;;;;;;5043177;28;20592;-52
2023/03/08 04:46:17;;;;;;;20.95;11.88;;;2.90;99.90;;;;;;5045852;28;20256;-54
2023/03/08 04:48:43;;;;;;;21.40;12.18;;;2.80;99.90;;;;;;5042196;28;20041;-51
2023/03/08 04:51:10;;;;;;;20.45;12.48;;;2.80;99.90;;;;;;5045630;28;20472;-53
2023/03/08 04:53:37;;;;;;;23.58;11.95;;;2.70;99.90;;;;;;5045446;28;20039;-48
2023/03/08 04:56:04;;;;;;;20.95;12.82;;;2.80;99.90;;;;;;5049782;28;20050;-51
2023/03/08 04:58:30;;;;;;;23.08;12.95;;;2.90;99.90;;;;;;5045638;28;20112;-51
2023/03/08 05:00:56;;;;;;;21.60;13.07;;;2.80;99.90;;;;;;5044135;28;20120;-53
2023/03/08 05:03:21;;;;;;;23.70;13.80;;;2.70;99.90;;;;;;5044934;28;20037;-51
2023/03/08 05:05:54;;;;;;;20.70;13.40;;;2.70;99.90;;;;;;5040635;28;20098;-52
2023/03/08 05:08:21;;;;;;;;;;;2.70;99.90;;;;;;5044963;28;20124;-52
2023/03/08 05:10:58;;;;;;;25.65;13.80;;;2.50;99.90;;;;;;5022144;28;20460;-52
2023/03/08 05:13:29;;;;;;;24.52;14.82;;;2.50;99.90;;;;;;5046428;28;20112;-52
2023/03/08 05:15:55;;;;;;;30.15;15.55;;;2.60;99.90;;;;;;5043192;28;20046;-51
2023/03/08 05:18:21;;;;;;;24.73;15.25;;;2.60;99.90;;;;;;5043882;28;20550;-52
2023/03/08 05:21:01;;;;;;;27.25;16.25;;;2.70;99.90;;;;;;5027238;28;20040;-52
2023/03/08 05:23:28;;;;;;;31.35;17.75;;;2.70;99.90;;;;;;5044837;28;20028;-48
2023/03/08 05:25:56;;;;;;;28.10;16.67;;;2.70;99.90;;;;;;5040404;28;20037;-53
2023/03/08 05:28:27;;;;;;;29.95;17.27;;;2.70;99.90;;;;;;5046051;28;20044;-52
2023/03/08 05:31:07;;;;;;;30.92;16.92;;;2.60;99.90;;;;;;5046253;28;20043;-52
2023/03/08 05:33:33;;;;;;;31.95;17.67;;;2.70;99.90;;;;;;5045689;28;20033;-48
2023/03/08 05:35:59;;;;;;;29.92;18.35;;;2.70;99.90;;;;;;5028435;28;20037;-50
2023/03/08 05:38:25;;;;;;;30.23;17.73;;;2.80;99.90;;;;;;5049666;28;20108;-49
2023/03/08 05:40:51;;;;;;;28.92;17.60;;;2.90;99.90;;;;;;5047763;28;20037;-50
2023/03/08 05:43:17;;;;;;;27.85;17.02;;;3.00;99.90;;;;;;5047666;28;20037;-50
2023/03/08 05:45:54;;;;;;;28.65;17.17;;;2.90;99.90;;;;;;5049231;28;20091;-49
2023/03/08 05:48:19;;;;;;;26.60;16.98;;;2.90;99.90;;;;;;5046829;28;20117;-48
2023/03/08 05:50:45;;;;;;;28.05;16.13;;;2.90;99.90;;;;;;5049558;28;20056;-50
2023/03/08 05:53:10;;;;;;;33.08;17.98;;;3.00;99.90;;;;;;5049459;28;20067;-49
2023/03/08 05:55:36;;;;;;;29.58;17.42;;;2.90;99.90;;;;;;5045434;28;20029;-48
2023/03/08 05:58:01;;;;;;;28.85;17.85;;;2.80;99.90;;;;;;5047755;28;20037;-48
2023/03/08 06:00:27;;;;;;;33.97;20.48;;;2.70;99.90;;;;;;5031795;28;20485;-52
2023/03/08 06:02:52;;;;;;;34.60;20.08;;;2.80;99.90;;;;;;5048324;28;20124;-48
2023/03/08 06:05:18;;;;;;;39.97;22.95;;;2.90;99.90;;;;;;5052636;28;20055;-49
2023/03/08 06:07:43;;;;;;;37.95;23.15;;;2.90;99.90;;;;;;5041992;28;20041;-50
2023/03/08 06:10:09;;;;;;;43.55;24.60;;;2.90;99.90;;;;;;5047450;28;20116;-48
2023/03/08 06:12:35;;;;;;;45.92;24.00;;;3.10;99.90;;;;;;5048827;28;20068;-49
2023/03/08 06:15:00;;;;;;;39.67;19.77;;;3.00;99.90;;;;;;5050028;28;20500;-49
2023/03/08 06:17:26;;;;;;;36.97;18.02;;;2.90;99.90;;;;;;5048421;28;20598;-51
2023/03/08 06:19:52;;;;;;;32.22;18.70;;;2.70;99.90;;;;;;5043777;28;20041;-50
2023/03/08 06:22:17;;;;;;;35.42;18.75;;;2.90;99.90;;;;;;5047938;28;20037;-49
2023/03/08 06:24:43;;;;;;;32.72;19.70;;;2.90;99.90;;;;;;5048043;28;20044;-49
2023/03/08 06:27:08;;;;;;;38.30;19.95;;;2.90;99.90;;;;;;5048180;28;20640;-48
2023/03/08 06:29:34;;;;;;;36.80;19.30;;;2.90;99.90;;;;;;5048863;28;20025;-51
2023/03/08 06:31:59;;;;;;;35.47;19.30;;;2.90;99.90;;;;;;5048483;28;20095;-49
2023/03/08 06:34:25;;;;;;;35.35;19.80;;;2.90;99.90;;;;;;5048944;28;20085;-51
2023/03/08 06:36:51;;;;;;;36.08;21.13;;;2.90;99.90;;;;;;5048937;28;20035;-54
2023/03/08 06:39:16;;;;;;;38.97;21.88;;;2.90;99.90;;;;;;5054122;28;20204;-52
2023/03/08 06:41:42;;;;;;;39.03;22.55;;;2.80;99.90;;;;;;5047715;28;20037;-54
2023/03/08 06:44:08;;;;;;;36.30;19.30;;;2.80;99.90;;;;;;5055870;28;20032;-54
2023/03/08 06:46:33;;;;;;;33.17;18.75;;;2.70;99.90;;;;;;5053187;28;20365;-53
2023/03/08 06:48:59;;;;;;;30.98;17.52;;;2.60;99.90;;;;;;5049336;28;20120;-50
2023/03/08 06:51:25;;;;;;;32.28;17.40;;;2.60;99.90;;;;;;5047405;28;20057;-54
2023/03/08 06:53:51;;;;;;;30.20;16.40;;;2.60;99.90;;;;;;5047926;28;20455;-54
2023/03/08 06:56:17;;;;;;;26.83;13.85;;;2.60;99.90;;;;;;5044754;28;20329;-54
2023/03/08 06:58:42;;;;;;;29.00;13.98;;;2.60;99.90;;;;;;5048537;28;20037;-54
2023/03/08 07:01:08;;;;;;;31.65;13.98;;;2.70;99.90;;;;;;5045954;28;20029;-54
2023/03/08 07:03:35;;;;;;;28.20;13.85;;;2.60;99.90;;;;;;5045405;28;20065;-54
2023/03/08 07:06:02;;;;;;;26.27;13.98;;;2.60;99.90;;;;;;5045828;28;20068;-54
2023/03/08 07:08:28;;;;;;;30.17;13.95;;;2.60;99.90;;;;;;5035600;28;20132;-53
2023/03/08 07:10:54;;;;;;;27.42;13.77;;;2.60;99.90;;;;;;5007285;28;20752;-55
2023/03/08 07:13:22;;;;;;;22.80;12.10;;;2.50;99.90;;;;;;5029500;28;20120;-52
2023/03/08 07:15:48;;;;;;;21.02;11.80;;;2.60;99.90;;;;;;5031475;28;20037;-54
2023/03/08 07:18:14;;;;;;;20.38;11.98;;;2.60;99.90;;;;;;5025764;28;20446;-54
2023/03/08 07:20:39;;;;;;;22.35;12.45;;;2.60;99.90;;;;;;5030691;28;20065;-54
2023/03/08 07:23:05;;;;;;;21.83;10.77;;;2.50;99.90;;;;;;5024720;28;20037;-54
2023/03/08 07:25:30;;;;;;;15.25;7.60;;;2.50;99.90;;;;;;5023326;28;20041;-54
2023/03/08 07:27:58;;;;;;;10.20;5.40;;;2.40;99.90;;;;;;5030749;28;20460;-54
2023/03/08 07:30:23;;;;;;;8.93;5.18;;;2.20;99.90;;;;;;5032268;28;20060;-53
2023/03/08 07:32:52;;;;;;;16.83;6.47;;;2.20;99.90;;;;;;5031361;28;20279;-54
2023/03/08 07:35:18;;;;;;;9.05;5.40;;;2.40;99.90;;;;;;5031536;28;20064;-53
2023/03/08 07:37:45;;;;;;;14.10;6.30;;;2.40;99.90;;;;;;5027571;28;20061;-54
2023/03/08 07:40:13;;;;;;;11.77;5.07;;;2.30;99.90;;;;;;5026242;28;20454;-53
2023/03/08 07:42:39;;;;;;;11.38;5.22;;;2.30;99.90;;;;;;5024855;28;20057;-54
2023/03/08 07:45:05;;;;;;;14.05;6.43;;;2.40;99.90;;;;;;5025342;28;20057;-54
2023/03/08 07:47:30;;;;;;;17.38;8.00;;;2.30;99.90;;;;;;5023156;28;20691;-54
2023/03/08 07:49:56;;;;;;;20.38;11.13;;;2.20;99.90;;;;;;5023681;28;20148;-53
2023/03/08 07:52:26;;;;;;;24.65;13.38;;;2.20;99.90;;;;;;5028921;28;22382;-54
2023/03/08 07:54:52;;;;;;;15.73;8.85;;;2.20;99.90;;;;;;5026945;28;20041;-55
2023/03/08 07:57:17;;;;;;;15.10;8.52;;;1.90;99.90;;;;;;5025247;28;20084;-54
2023/03/08 07:59:43;;;;;;;15.15;8.45;;;2.00;99.90;;;;;;5021818;28;20095;-54
2023/03/08 08:02:12;;;;;;;14.98;8.15;;;2.10;99.90;;;;;;5019480;28;20068;-53
2023/03/08 08:04:37;;;;;;;14.32;7.32;;;1.90;99.90;;;;;;5030834;28;20425;-54
2023/03/08 08:07:03;;;;;;;14.25;7.03;;;2.00;99.90;;;;;;5023775;28;20091;-54
2023/03/08 08:09:29;;;;;;;20.95;11.35;;;2.00;99.90;;;;;;5032473;28;20044;-55
2023/03/08 08:11:54;;;;;;;18.35;10.15;;;2.00;99.90;;;;;;5032544;28;20442;-54
2023/03/08 08:14:20;;;;;;;13.90;8.10;;;1.80;99.90;;;;;;5030206;28;20057;-54
2023/03/08 08:16:45;;;;;;;15.52;8.77;;;1.90;99.90;;;;;;5024990;28;20083;-53
2023/03/08 08:19:13;;;;;;;17.15;9.68;;;1.70;99.90;;;;;;5030251;28;20036;-54
2023/03/08 08:21:39;;;;;;;21.17;10.77;;;1.70;99.90;;;;;;5035529;28;20528;-54
2023/03/08 08:24:05;;;;;;;20.65;11.45;;;1.80;99.90;;;;;;5018134;28;20033;-54
2023/03/08 08:26:30;;;;;;;15.57;9.10;;;1.70;99.90;;;;;;5010238;28;20034;-53
2023/03/08 08:28:56;;;;;;;13.38;7.25;;;1.70;99.90;;;;;;5034618;28;20051;-53
2023/03/08 08:31:27;;;;;;;14.95;8.60;;;1.80;99.90;;;;;;5024078;28;20079;-54
2023/03/08 08:33:53;;;;;;;16.52;8.63;;;1.70;99.90;;;;;;5021339;28;20381;-55
2023/03/08 08:36:20;;;;;;;14.68;8.43;;;1.60;99.90;;;;;;5029527;28;20032;-55
2023/03/08 08:38:46;;;;;;;13.35;6.35;;;1.70;99.90;;;;;;5030417;28;20045;-55
2023/03/08 08:41:17;;;;;;;20.70;11.10;;;1.70;99.90;;;;;;5026820;28;20380;-55
2023/03/08 08:43:44;;;;;;;23.55;11.88;;;1.70;99.90;;;;;;5025163;28;20067;-55
2023/03/08 08:46:10;;;;;;;22.48;10.50;;;1.80;99.90;;;;;;5023785;28;20034;-55
2023/03/08 08:48:37;;;;;;;8.45;5.35;;;1.80;99.90;;;;;;5028231;28;20090;-56
2023/03/08 08:51:04;;;;;;;12.73;7.75;;;1.80;99.90;;;;;;5028726;28;20404;-55
2023/03/08 08:53:30;;;;;;;17.95;9.35;;;1.90;99.90;;;;;;5022041;28;20046;-56
2023/03/08 08:55:56;;;;;;;13.68;7.20;;;1.90;99.90;;;;;;5018371;28;20038;-55
2023/03/08 08:58:22;;;;;;;12.13;7.60;;;1.80;99.90;;;;;;5024581;28;20125;-55
2023/03/08 09:00:48;;;;;;;7.93;5.15;;;1.80;99.90;;;;;;5019162;28;20079;-56
2023/03/08 09:03:14;;;;;;;10.55;6.75;;;1.60;99.90;;;;;;5033227;28;20029;-56
2023/03/08 09:05:42;;;;;;;12.57;7.15;;;1.80;99.90;;;;;;5022229;28;20087;-56
2023/03/08 09:08:09;;;;;;;12.45;6.75;;;1.80;99.90;;;;;;5023802;28;20528;-56
2023/03/08 09:10:37;;;;;;;13.52;6.55;;;1.70;99.90;;;;;;5036096;28;20047;-56
2023/03/08 09:13:04;;;;;;;9.57;6.93;;;1.70;99.90;;;;;;5025675;28;20064;-56
2023/03/08 09:15:29;;;;;;;9.38;7.05;;;1.60;99.90;;;;;;5041151;28;20665;-56
2023/03/08 09:17:55;;;;;;;10.88;5.60;;;1.70;99.90;;;;;;5036127;28;20179;-56
2023/03/08 09:20:21;;;;;;;12.32;5.43;;;1.80;99.90;;;;;;5028072;28;20084;-56
2023/03/08 09:22:46;;;;;;;8.57;5.72;;;1.90;99.90;;;;;;5027493;28;20087;-57
2023/03/08 09:25:13;;;;;;;8.68;5.97;;;1.90;99.90;;;;;;5029123;28;20069;-56
2023/03/08 09:27:40;;;;;;;7.00;4.85;;;2.00;99.90;;;;;;5027777;28;20052;-56
2023/03/08 09:30:09;;;;;;;7.82;4.75;;;2.00;99.90;;;;;;5030246;28;20057;-56
2023/03/08 09:32:35;;;;;;;6.90;4.28;;;1.80;99.90;;;;;;5035305;28;20030;-56
2023/03/08 09:35:01;;;;;;;6.75;4.50;;;1.70;99.90;;;;;;5035059;28;20389;-58
2023/03/08 09:37:27;;;;;;;6.57;4.80;;;1.70;99.90;;;;;;5026487;28;20593;-56
2023/03/08 09:39:53;;;;;;;9.55;5.30;;;1.50;99.90;;;;;;5030844;28;20063;-56
2023/03/08 09:42:26;;;;;;;7.55;4.50;;;1.50;99.90;;;;;;5029055;28;20034;-57
2023/03/08 09:45:22;;;;;;;8.35;4.22;;;1.60;99.90;;;;;;5039200;28;20041;-56
2023/03/08 09:47:58;;;;;;;5.53;4.50;;;1.70;99.90;;;;;;5025957;28;20049;-56
2023/03/08 09:50:54;;;;;;;5.53;4.35;;;1.70;99.90;;;;;;5026713;28;20064;-56
2023/03/08 09:53:32;;;;;;;9.00;4.80;;;1.80;99.90;;;;;;5014557;28;20052;-56
2023/03/08 09:56:10;;;;;;;6.68;4.32;;;1.50;99.90;;;;;;5026199;28;20033;-56
2023/03/08 09:58:59;;;;;;;5.63;4.10;;;1.40;99.90;;;;;;5027463;28;20043;-56
2023/03/08 10:01:40;;;;;;;5.95;4.10;;;1.60;99.90;;;;;;5023665;28;20038;-56
2023/03/08 10:04:22;;;;;;;7.95;4.95;;;1.70;99.90;;;;;;5028073;28;20116;-57
2023/03/08 10:07:18;;;;;;;9.30;4.50;;;1.80;99.90;;;;;;5027997;28;20045;-57
2023/03/08 10:10:15;;;;;;;6.18;4.00;;;2.10;99.90;;;;;;5026432;28;20049;-57
2023/03/08 10:13:06;;;;;;;9.40;5.35;;;1.90;99.90;;;;;;5027701;28;20508;-56
2023/03/08 10:15:38;;;;;;;7.75;4.40;;;2.00;99.90;;;;;;5046709;28;20389;-56
2023/03/08 10:18:19;;;;;;;5.35;4.63;;;2.10;99.90;;;;;;5046825;28;20064;-56
2023/03/08 10:20:46;;;;;;;6.85;4.53;;;2.20;99.90;;;;;;5047094;28;20029;-56
2023/03/08 10:23:17;;;;;;;6.80;5.30;;;2.20;99.90;;;;;;5050380;28;20472;-56
2023/03/08 10:25:45;;;;;;;9.05;4.82;;;2.30;99.90;;;;;;5039699;28;20485;-56
2023/03/08 10:28:22;;;;;;;7.70;5.07;;;2.30;99.90;;;;;;5041010;28;20118;-56
2023/03/08 10:30:57;;;;;;;6.95;4.60;;;2.10;99.90;;;;;;5044772;28;20419;-56
2023/03/08 10:33:25;;;;;;;8.25;5.65;;;2.00;99.90;;;;;;5046754;28;20537;-56
2023/03/08 10:36:05;;;;;;;6.80;5.20;;;2.10;99.90;;;;;;5046762;28;20112;-57
2023/03/08 10:38:33;;;;;;;7.68;5.95;;;2.10;99.90;;;;;;5033347;28;20029;-56
2023/03/08 10:41:03;;;;;;;9.38;6.80;;;2.20;99.90;;;;;;5032370;28;20376;-56
2023/03/08 10:43:38;;;;;;;7.97;6.35;;;2.40;99.90;;;;;;5035623;28;20703;-57
2023/03/08 10:46:11;;;;;;;9.32;6.75;;;2.50;99.90;;;;;;5038579;28;20527;-56
2023/03/08 10:48:36;;;;;;;8.75;6.57;;;2.60;99.90;;;;;;5035715;28;20533;-56
2023/03/08 10:51:04;;;;;;;8.45;6.72;;;2.60;99.90;;;;;;5026363;28;20044;-56
2023/03/08 10:53:31;;;;;;;7.72;6.35;;;2.60;99.90;;;;;;5028910;28;20163;-56
2023/03/08 10:55:59;;;;;;;7.82;6.00;;;2.50;99.90;;;;;;5042588;28;20056;-56
2023/03/08 10:58:37;;;;;;;8.38;6.85;;;2.40;99.90;;;;;;5036890;28;20033;-56
2023/03/08 11:01:27;;;;;;;9.20;6.75;;;2.40;99.90;;;;;;5047862;28;20464;-56
2023/03/08 11:04:05;;;;;;;10.27;6.80;;;2.20;99.90;;;;;;5028141;28;20520;-56
2023/03/08 11:06:34;;;;;;;8.95;6.60;;;2.40;99.90;;;;;;5020962;28;20052;-56
2023/03/08 11:09:02;;;;;;;8.75;7.30;;;2.40;99.90;;;;;;5027921;28;20558;-56
2023/03/08 11:11:38;;;;;;;9.35;6.95;;;2.60;99.90;;;;;;5039489;28;20504;-56
2023/03/08 11:14:05;;;;;;;10.38;7.28;;;2.60;99.90;;;;;;5043126;28;20080;-56
2023/03/08 11:16:52;;;;;;;9.50;6.50;;;2.40;99.90;;;;;;5046501;28;20175;-56
2023/03/08 11:19:36;;;;;;;9.75;8.07;;;2.30;99.90;;;;;;5042406;28;20033;-56
2023/03/08 11:22:10;;;;;;;14.50;9.00;;;2.30;99.90;;;;;;5042095;28;20091;-54
2023/03/08 11:24:44;;;;;;;17.83;10.65;;;2.40;99.90;;;;;;5043247;28;20402;-56
2023/03/08 11:27:21;;;;;;;15.98;9.27;;;2.40;99.90;;;;;;5039679;28;20086;-56
2023/03/08 11:30:01;;;;;;;13.50;9.90;;;2.50;99.90;;;;;;5045721;28;20029;-56
2023/03/08 11:32:30;;;;;;;16.73;11.90;;;2.30;99.90;;;;;;5043598;28;20040;-56
2023/03/08 11:35:36;;;;;;;19.63;12.18;;;2.40;99.90;;;;;;5045165;28;20397;-56
2023/03/08 11:38:20;;;;;;;11.90;9.25;;;2.50;99.90;;;;;;4953121;28;20046;-56
2023/03/08 11:41:04;;;;;;;12.32;8.75;;;2.40;99.90;;;;;;4952327;28;20500;-55
2023/03/08 11:43:50;;;;;;;20.88;11.80;;;2.30;99.90;;;;;;5017931;28;20122;-56
2023/03/08 11:46:35;;;;;;;14.00;9.80;;;2.50;99.90;;;;;;5027639;28;20038;-56
2023/03/08 11:49:24;;;;;;;11.30;8.18;;;2.50;99.90;;;;;;5014954;28;20048;-55
2023/03/08 11:52:03;;;;;;;10.77;7.60;;;2.40;99.90;;;;;;5036915;28;20082;-56
2023/03/08 11:55:04;;;;;;;14.00;8.25;;;2.40;99.90;;;;;;5025627;28;20037;-56
2023/03/08 11:57:36;;;;;;;15.05;8.55;;;2.10;99.90;;;;;;5024230;28;20041;-56
2023/03/08 12:00:40;;;;;;;9.53;6.87;;;2.30;99.90;;;;;;5038644;28;20028;-54
2023/03/08 12:03:18;;;;;;;10.88;7.85;;;2.30;99.90;;;;;;5044548;28;20853;-55
2023/03/08 12:05:51;;;;;;;10.05;7.82;;;2.20;99.90;;;;;;5038015;28;20534;-55
2023/03/08 12:08:20;;;;;;;;;;;2.20;99.90;;;;;;5049442;28;20455;-55
2023/03/08 12:10:57;;;;;;;11.88;7.90;;;2.20;99.90;;;;;;5045541;28;19912;-55
2023/03/08 12:13:33;;;;;;;11.15;7.97;;;2.40;99.90;;;;;;5045291;28;20036;-55
2023/03/08 12:16:13;;;;;;;10.40;8.27;;;2.50;99.90;;;;;;5042933;28;20488;-55
2023/03/08 12:18:47;;;;;;;11.57;9.55;;;2.50;99.90;;;;;;5035779;28;20056;-55
2023/03/08 12:21:37;;;;;;;12.45;8.88;;;2.70;99.90;;;;;;5020624;28;20404;-55
2023/03/08 12:24:24;;;;;;;12.95;9.07;;;2.60;99.90;;;;;;5024947;28;20658;-54
2023/03/08 12:27:05;;;;;;;12.10;8.65;;;2.60;99.90;;;;;;5027921;28;20503;-54
2023/03/08 12:29:48;;;;;;;10.10;7.75;;;2.70;99.90;;;;;;5017725;28;20405;-54
2023/03/08 12:32:15;;;;;;;9.25;7.68;;;2.40;99.90;;;;;;5018142;28;20037;-53
2023/03/08 12:34:44;;;;;;;9.52;7.55;;;2.50;99.90;;;;;;5031031;28;20412;-54
2023/03/08 12:37:28;;;;;;;9.20;7.47;;;2.50;99.90;;;;;;5026164;28;20029;-54
2023/03/08 12:39:56;;;;;;;10.65;8.10;;;2.30;99.90;;;;;;5029458;28;20083;-54
2023/03/08 12:42:33;;;;;;;12.43;8.23;;;2.30;99.90;;;;;;5022966;28;20536;-54
2023/03/08 12:45:08;;;;;;;10.27;7.90;;;2.50;99.90;;;;;;5025169;28;20515;-55
2023/03/08 12:47:33;;;;;;;10.18;8.18;;;2.60;99.90;;;;;;5019058;28;20041;-55
2023/03/08 12:50:08;;;;;;;11.73;7.68;;;2.70;99.90;;;;;;5031366;28;20079;-54
2023/03/08 12:52:34;;;;;;;11.35;8.18;;;2.70;99.90;;;;;;5032213;28;20064;-54